Nearby METAR Reports

 

KIAG - Niagara Falls, New York, USA
Distance from station: W 12mi, 20km
Updated: 12/04/2022 4:53pm
Clear
Clear
 Wind from SW
Wind: SW 20 mph , 31 km/h, Gust: 29 mph , 46 km/h
Temperature: 36°F , 2°C
Wind Chill: 25°F , -4°C
Dew Point: 25°F , -4°C
Humidity: 65%
Barometer: 1017.6 hPa
Clouds: Clear
Visibility: 10 miles , 16 km
2022/12/04 21:53 KIAG 042153Z 22017G25KT 10SM CLR 02/M04 A3005 RMK AO2 PK WND 22033/2119 SLP190 T00171044
KBUF - Buffalo/Cheektow, New York, USA
Distance from station: S 13mi, 21km
Updated: 12/04/2022 4:54pm
Few Clouds
Few Clouds
 Wind from SW
Wind: SW 15 mph , 24 km/h, Gust: 25 mph , 41 km/h
Temperature: 36°F , 2°C
Wind Chill: 27°F , -3°C
Dew Point: 21°F , -6°C
Humidity: 56%
Barometer: 1017.6 hPa
Clouds: Few Clouds
Visibility: 10 miles , 16 km
Cloud details: Few Clouds 3400 ft
Few Clouds 20000 ft
2022/12/04 21:54 KBUF 042154Z 22013G22KT 10SM FEW034 FEW200 02/M06 A3005 RMK AO2 PK WND 24029/2106 PRESFR SLP185 T00171056
 
KROC - Rochester, New York, USA
Distance from station: E 51mi, 82km
Updated: 12/04/2022 4:54pm
Partly cloudy
Partly cloudy
 Wind from WSW
Wind: WSW 12 mph , 19 km/h
Temperature: 34°F , 1°C
Wind Chill: 25°F , -4°C
Dew Point: 21°F , -6°C
Humidity: 60%
Barometer: 1018.6 hPa
Clouds: Partly cloudy
Visibility: 10 miles , 16 km
Cloud details: Few Clouds 4000 ft
Few Clouds 15000 ft
Partly cloudy 25000 ft
2022/12/04 21:54 KROC 042154Z 24010KT 10SM FEW040 FEW150 SCT250 01/M06 A3008 RMK AO2 SLP196 T00061061
CYSN - St. Catharines A, Ontario, Canada
Distance from station: WNW 25mi, 40km
Updated: 12/04/2022 5:00pm
Partly cloudy
Partly cloudy
 Wind from SSW
Wind: SSW 22 mph , 35 km/h
Temperature: 36°F , 2°C
Wind Chill: 25°F , -4°C
Dew Point: 25°F , -4°C
Humidity: 65%
Barometer: 1017.3 hPa
Clouds: Partly cloudy
Visibility: 15 miles , 24 km
Cloud details: Few Clouds 4000 ft
Partly cloudy 25000 ft
2022/12/04 22:00 CYSN 042200Z 21019KT 15SM FEW040 SCT250 02/M04 A3004 RMK SC1CI3 SC TR SLP178
 
KOLE - Olean, New York, USA
Distance from station: SSE 63mi, 102km
Updated: 12/04/2022 4:55pm
Clear
Clear
 Wind from WSW
Wind: WSW 7 mph , 11 km/h
Temperature: 30°F , -1°C
Wind Chill: 23°F , -5°C
Dew Point: 12°F , -11°C
Humidity: 47%
Barometer: 1017.6 hPa
Clouds: Clear
Visibility: 10 miles , 16 km
2022/12/04 21:55 KOLE 042155Z AUTO 24006KT 10SM CLR M01/M11 A3005 RMK AO2
KJHW - Jamestown, New York, USA
Distance from station: SSW 74mi, 119km
Updated: 12/04/2022 4:56pm
Clear
Clear
 Wind from SSW
Wind: SSW 9 mph , 15 km/h
Temperature: 30°F , -1°C
Wind Chill: 22°F , -6°C
Dew Point: 18°F , -8°C
Humidity: 59%
Barometer: 1018.3 hPa
Clouds: Clear
Visibility: 10 miles , 16 km
2022/12/04 21:56 KJHW 042156Z AUTO 21008KT 10SM CLR M01/M08 A3007 RMK AO2 SLP209 T10111083 FZRANO
 
CWWZ - Port Weller (mar, Ontario, Canada
Distance from station: WNW 28mi, 45km
Updated: 12/04/2022 5:00pm

 Wind from SW
Wind: SW 14 mph , 22 km/h, Gust: 23 mph , 37 km/h
Temperature: 36°F , 2°C
Wind Chill: 27°F , -3°C
Dew Point: 27°F , -3°C
Humidity: 70%
2022/12/04 22:00 CWWZ 042200Z AUTO 22012G20KT 02/M03 RMK AO1 PK WND 21023/2135 SLP178 T00231027 56012
CWPC - Port Colborne(Au, Ontario, Canada
Distance from station: WSW 33mi, 53km
Updated: 12/04/2022 5:00pm

 Wind from WSW
Wind: WSW 32 mph , 52 km/h, Gust: 39 mph , 63 km/h
Temperature: 37°F , 3°C
Wind Chill: 24°F , -4°C
Dew Point: 23°F , -5°C
Humidity: 56%
2022/12/04 22:00 CWPC 042200Z AUTO 24028G34KT 03/M05 RMK AO1 PK WND 24035/2149 SLP197 T00311048 58011
 
CXVN - Vineland (au8), Ontario, Canada
Distance from station: W 36mi, 58km
Updated: 12/04/2022 5:00pm

 Wind from SSW
Wind: SSW 16 mph , 26 km/h, Gust: 25 mph , 41 km/h
Temperature: 34°F , 1°C
Wind Chill: 24°F , -4°C
Dew Point: 25°F , -4°C
Humidity: 70%
2022/12/04 22:00 CXVN 042200Z AUTO 21014G22KT 01/M04 RMK AO1 PK WND 21025/2149 SLP182 T00051039 58012
CYTZ - Toronto Il Vor, Ontario, Canada
Distance from station: NW 50mi, 81km
Updated: 12/04/2022 5:00pm
Clear
Clear
 Wind from WSW
Wind: WSW 18 mph , 30 km/h
Temperature: 36°F , 2°C
Wind Chill: 26°F , -3°C
Dew Point: 21°F , -6°C
Humidity: 56%
Barometer: 1016.9 hPa
Clouds: Clear
Visibility: 9 miles , 14 km
2022/12/04 22:00 CYTZ 042200Z AUTO 25016KT 9SM CLR 02/M06 A3003 RMK SLP176
 
CXTO - Toronto City, Ontario, Canada
Distance from station: NW 52mi, 84km
Updated: 12/04/2022 5:00pm

 
Temperature: 36°F , 2°C
Dew Point: 16°F , -9°C
Humidity: 44%
2022/12/04 22:00 CXTO 042200Z AUTO 02/M09 RMK AO1 SLP174 T00181089 56011
KDKK - Dunkirk, New York, USA
Distance from station: SW 52mi, 84km
Updated: 12/04/2022 4:53pm
Clear
Clear
 Wind from SSW
Wind: SSW 9 mph , 15 km/h
Temperature: 36°F , 2°C
Wind Chill: 29°F , -2°C
Dew Point: 18°F , -8°C
Humidity: 48%
Barometer: 1019 hPa
Clouds: Clear
Visibility: 10 miles , 16 km
2022/12/04 21:53 KDKK 042153Z AUTO 20008KT 10SM CLR 02/M08 A3009 RMK AO2 SLP196 T00221083
 
CYOO - Oshawa, Ontario, Canada
Distance from station: N 56mi, 90km
Updated: 12/04/2022 5:00pm
Mostly cloudy
Mostly cloudy
 Wind from SW
Wind: SW 8 mph , 13 km/h
Temperature: 34°F , 1°C
Wind Chill: 27°F , -3°C
Dew Point: 18°F , -8°C
Humidity: 51%
Barometer: 1016.3 hPa
Clouds: Mostly cloudy
Visibility: 9 miles , 14 km
Cloud details: Mostly cloudy 17000 ft
2022/12/04 22:00 CYOO 042200Z AUTO 23007KT 9SM BKN170 01/M08 A3001 RMK SLP171
CWWB - Burlington Piers, Ontario, Canada
Distance from station: WNW 56mi, 91km
Updated: 12/04/2022 5:00pm

 Wind from SSW
Wind: SSW 12 mph , 19 km/h, Gust: 20 mph , 31 km/h
Temperature: 37°F , 3°C
Wind Chill: 29°F , -2°C
Dew Point: 27°F , -3°C
Humidity: 65%
2022/12/04 22:00 CWWB 042200Z AUTO 20010G17KT 03/M03 RMK AO1 PK WND 21019/2104 SLP182 T00251034 56012
 
CYYZ - Toronto/Pearson, Ontario, Canada
Distance from station: NW 60mi, 96km
Updated: 12/04/2022 5:00pm
Few Clouds
Few Clouds
 Wind from WSW
Wind: WSW 10 mph , 17 km/h, Gust: 17 mph , 28 km/h
Temperature: 32°F , 0°C
Wind Chill: 24°F , -4°C
Dew Point: 16°F , -9°C
Humidity: 51%
Barometer: 1016.6 hPa
Clouds: Few Clouds
Visibility: 15 miles , 24 km
Cloud details: Few Clouds 3000 ft
Few Clouds 26000 ft
2022/12/04 22:00 CYYZ 042200Z 24009G15KT 15SM FEW030 FEW260 00/M09 A3002 RMK CF1CI2 CF TR SLP177
CYKZ - Toronto Buttonvi, Ontario, Canada
Distance from station: NW 62mi, 99km
Updated: 01/03/2019 4:00am
NOT Current
Partly cloudy
Partly cloudy
 Wind from WSW
Wind: WSW 5 mph , 7 km/h
Temperature: 27°F , -3°C
Wind Chill: 21°F , -6°C
Dew Point: 23°F , -5°C
Humidity: 86%
Barometer: 1010.8 hPa
Clouds: Partly cloudy
Visibility: 15 miles , 24 km
Cloud details: Partly cloudy 4000 ft
2019/01/03 09:00 CYKZ 030900Z 25004KT 15SM SCT040 M03/M05 A2985 RMK SC3 LAST STFD OBS FAREWELL SLP118
 
CXHM - Hamilton Rbg Cs, Ontario, Canada
Distance from station: W 62mi, 100km
Updated: 12/04/2022 5:00pm

 Wind from WSW
Wind: WSW 6 mph , 9 km/h
Temperature: 34°F , 1°C
Wind Chill: 29°F , -2°C
Dew Point: 23°F , -5°C
Humidity: 65%
2022/12/04 22:00 CXHM 042200Z AUTO 24005KT 01/M05 RMK AO1 SLP182 T00121050 56013
KDSV - Dansville, New York, USA
Distance from station: SE 62mi, 100km
Updated: 12/04/2022 4:54pm
Clear
Clear
 Wind from calm
Wind: Calm
Temperature: 36°F , 2°C
Dew Point: 16°F , -9°C
Humidity: 44%
Barometer: 1019 hPa
Clouds: Clear
Visibility: 10 miles , 16 km
2022/12/04 21:54 KDSV 042154Z AUTO 00000KT 10SM CLR 02/M09 A3009 RMK AO2 SLP206 T00221089
 
CYHM - Hamilton Airport, Ontario, Canada
Distance from station: W 63mi, 101km
Updated: 12/04/2022 5:00pm
Partly cloudy
Partly cloudy
 Wind from SW
Wind: SW 16 mph , 26 km/h, Gust: 22 mph , 35 km/h
Temperature: 32°F , 0°C
Wind Chill: 21°F , -6°C
Dew Point: 23°F , -5°C
Humidity: 69%
Barometer: 1016.9 hPa
Clouds: Partly cloudy
Visibility: 15 miles , 24 km
Cloud details: Few Clouds 2000 ft
Partly cloudy 20000 ft
2022/12/04 22:00 CYHM 042200Z 22014G19KT 15SM FEW020 SCT200 M00/M05 A3003 RMK CF1CI3 CF TR SLP182
CWNC - Cobourg (mars), Ontario, Canada
Distance from station: NNE 63mi, 102km
Updated: 12/04/2022 5:00pm

 Wind from W
Wind: W 24 mph , 39 km/h, Gust: 30 mph , 48 km/h
Temperature: 37°F , 3°C
Wind Chill: 26°F , -3°C
Dew Point: 27°F , -3°C
Humidity: 65%
2022/12/04 22:00 CWNC 042200Z AUTO 26021G26KT 03/M03 RMK AO1 PK WND 25027/2139 SLP169 T00271030 580